Nearby METAR Reports

 

KCRE - North Myrtle Beach, South Carolina, USA
Distance from station: WSW 14mi, 23km
Updated: 11/24/2017 10:53am
Clear
Clear
 Wind from NNE
Wind: NNE 10 mph , 17 km/h, Gust: 20 mph , 31 km/h
Temperature: 52°F , 11°C
Dew Point: 34°F , 1°C
Humidity: 50%
Barometer: 29.99 inHg , 1015.6 hPa
Clouds: Clear
Visibility: 10 miles , 16 km
2017/11/24 15:53 KCRE 241553Z 02009G17KT 10SM CLR 11/01 A2999 RMK AO1 SLP157 T01060006
KSUT - Southport, North Carolina, USA
Distance from station: E 24mi, 38km
Updated: 11/24/2017 11:05am
Overcast
Overcast
 Wind from N
Wind: N 10 mph , 17 km/h, Gust: 18 mph , 30 km/h
Temperature: 48°F , 9°C
Wind Chill: 44°F , 7°C
Dew Point: 34°F , 1°C
Humidity: 58%
Barometer: 29.99 inHg , 1015.6 hPa
Clouds: Overcast
Visibility: 10 miles , 16 km
Cloud details: Overcast 8000 ft
2017/11/24 16:05 KSUT 241605Z AUTO 01009G16KT 10SM OVC080 09/01 A2999 RMK AO2 T00940006
KCPC - Whiteville, North Carolina, USA
Distance from station: NNW 28mi, 46km
Updated: 11/24/2017 11:05am
Clear
Clear
 Wind from NNE
Wind: NNE 6 mph , 9 km/h
Temperature: 50°F , 10°C
Wind Chill: 48°F , 9°C
Dew Point: 32°F , 0°C
Humidity: 50%
Barometer: 30.01 inHg , 1016.3 hPa
Clouds: Clear
Visibility: 10 miles , 16 km
2017/11/24 16:05 KCPC 241605Z AUTO 03005KT 10SM CLR 10/00 A3001 RMK AO2 T01021004
 
KILM - Wilmington, North Carolina, USA
Distance from station: NE 42mi, 67km
Updated: 11/24/2017 10:53am
Mostly cloudy
Mostly cloudy
 Wind from NNE
Wind: NNE 10 mph , 17 km/h
Temperature: 48°F , 9°C
Wind Chill: 44°F , 7°C
Dew Point: 34°F , 1°C
Humidity: 58%
Barometer: 30.01 inHg , 1016.3 hPa
Clouds: Mostly cloudy
Visibility: 10 miles , 16 km
Cloud details: Mostly cloudy 2700 ft
2017/11/24 15:53 KILM 241553Z AUTO 02009KT 10SM BKN027 09/01 A3001 RMK AO2 SLP162 T00940006
KLBT - Lumberton, North Carolina, USA
Distance from station: NW 57mi, 92km
Updated: 11/24/2017 10:54am
Clear
Clear
 Wind from ENE
Wind: ENE 9 mph , 15 km/h
Temperature: 54°F , 12°C
Dew Point: 30°F , -1°C
Humidity: 41%
Barometer: 30.02 inHg , 1016.6 hPa
Clouds: Clear
Visibility: 10 miles , 16 km
2017/11/24 15:54 KLBT 241554Z AUTO 06008KT 020V080 10SM CLR 12/M01 A3002 RMK AO2 SLP166 T01171006
KGGE - Georgetown, South Carolina, USA
Distance from station: SW 63mi, 101km
Updated: 11/24/2017 11:35am
Overcast
Overcast
 Wind from N
Wind: N 8 mph , 13 km/h
Temperature: 52°F , 11°C
Dew Point: 32°F , 0°C
Humidity: 47%
Barometer: 30.00 inHg , 1015.9 hPa
Clouds: Overcast
Visibility: 10 miles , 16 km
Cloud details: Overcast 7500 ft
2017/11/24 16:35 KGGE 241635Z AUTO 36007KT 10SM OVC075 11/00 A3000 RMK AO2
 
KFLO - Florence, South Carolina, USA
Distance from station: WNW 73mi, 118km
Updated: 11/24/2017 10:53am
Clear
Clear
 Wind from ENE
Wind: ENE 10 mph , 17 km/h
Temperature: 52°F , 11°C
Dew Point: 32°F , 0°C
Humidity: 47%
Barometer: 30.03 inHg , 1016.9 hPa
Clouds: Clear
Visibility: 10 miles , 16 km
2017/11/24 15:53 KFLO 241553Z 06009KT 10SM CLR 11/00 A3003 RMK AO2 SLP167 T01060000 $
KCTZ - Clinton, North Carolina, USA
Distance from station: N 74mi, 119km
Updated: 11/24/2017 11:05am
Clear
Clear
 Wind from ENE
Wind: ENE 6 mph , 9 km/h
Temperature: 48°F , 9°C
Wind Chill: 45°F , 7°C
Dew Point: 32°F , 0°C
Humidity: 54%
Barometer: 30.04 inHg , 1017.3 hPa
Clouds: Clear
Visibility: 10 miles , 16 km
2017/11/24 16:05 KCTZ 241605Z AUTO 07005KT 10SM CLR 09/00 A3004 RMK AO2 T00930001
KFAY - Fayetteville, North Carolina, USA
Distance from station: NNW 77mi, 124km
Updated: 11/24/2017 10:53am
Clear
Clear
 Wind from NE
Wind: NE 8 mph , 13 km/h
Temperature: 50°F , 10°C
Wind Chill: 47°F , 8°C
Dew Point: 30°F , -1°C
Humidity: 47%
Barometer: 30.03 inHg , 1016.9 hPa
Clouds: Clear
Visibility: 10 miles , 16 km
2017/11/24 15:53 KFAY 241553Z 05007KT 10SM CLR 10/M01 A3003 RMK AO2 SLP164 T01001006
 
KOAJ - Jacksonville, North Carolina, USA
Distance from station: NE 80mi, 129km
Updated: 11/24/2017 10:56am
Clear
Clear
 Wind from NNE
Wind: NNE 10 mph , 17 km/h
Temperature: 46°F , 8°C
Wind Chill: 41°F , 5°C
Dew Point: 36°F , 2°C
Humidity: 66%
Barometer: 30.03 inHg , 1016.9 hPa
Clouds: Clear
Visibility: 10 miles , 16 km
2017/11/24 15:56 KOAJ 241556Z AUTO 02009KT 10SM CLR 08/02 A3003 RMK AO2 SLP175 T00830022